sensor_id;sensor_type;location;lat;lon;timestamp;pressure;altitude;pressure_sealevel;temperature;humidity
51227;BME280;42714;48.260;10.980;2023-07-31T00:01:19;971.8;;;16.0;100.0
51227;BME280;42714;48.260;10.980;2023-07-31T00:06:20;971.8;;;16.0;100.0
51227;BME280;42714;48.260;10.980;2023-07-31T00:11:21;971.8;;;16.0;100.0
51227;BME280;42714;48.260;10.980;2023-07-31T00:16:22;971.7;;;15.9;100.0
51227;BME280;42714;48.260;10.980;2023-07-31T00:21:23;971.7;;;15.9;100.0
51227;BME280;42714;48.260;10.980;2023-07-31T00:26:24;971.7;;;15.8;100.0
51227;BME280;42714;48.260;10.980;2023-07-31T00:31:25;971.7;;;15.6;100.0
51227;BME280;42714;48.260;10.980;2023-07-31T00:36:26;971.7;;;15.5;100.0
51227;BME280;42714;48.260;10.980;2023-07-31T00:41:27;971.6;;;15.5;100.0
51227;BME280;42714;48.260;10.980;2023-07-31T00:46:28;971.5;;;15.4;100.0
51227;BME280;42714;48.260;10.980;2023-07-31T00:51:29;971.5;;;15.4;100.0
51227;BME280;42714;48.260;10.980;2023-07-31T00:56:30;971.5;;;15.4;100.0
51227;BME280;42714;48.260;10.980;2023-07-31T01:01:31;971.5;;;15.4;100.0
51227;BME280;42714;48.260;10.980;2023-07-31T01:11:34;971.5;;;15.7;100.0
51227;BME280;42714;48.260;10.980;2023-07-31T01:16:34;971.4;;;15.8;100.0
51227;BME280;42714;48.260;10.980;2023-07-31T01:26:36;971.4;;;15.7;100.0
51227;BME280;42714;48.260;10.980;2023-07-31T01:31:37;971.3;;;15.8;100.0
51227;BME280;42714;48.260;10.980;2023-07-31T01:36:38;971.2;;;15.7;100.0
51227;BME280;42714;48.260;10.980;2023-07-31T01:41:39;971.3;;;15.6;100.0
51227;BME280;42714;48.260;10.980;2023-07-31T01:46:40;971.3;;;15.6;100.0
51227;BME280;42714;48.260;10.980;2023-07-31T01:51:41;971.2;;;15.6;100.0
51227;BME280;42714;48.260;10.980;2023-07-31T01:56:42;971.3;;;15.5;100.0
51227;BME280;42714;48.260;10.980;2023-07-31T02:01:43;971.3;;;15.4;100.0
51227;BME280;42714;48.260;10.980;2023-07-31T02:06:44;971.3;;;15.3;100.0
51227;BME280;42714;48.260;10.980;2023-07-31T02:11:45;971.2;;;15.3;100.0
51227;BME280;42714;48.260;10.980;2023-07-31T02:16:46;971.0;;;15.3;100.0
51227;BME280;42714;48.260;10.980;2023-07-31T02:21:47;971.0;;;15.2;100.0
51227;BME280;42714;48.260;10.980;2023-07-31T02:26:48;970.9;;;15.2;100.0
51227;BME280;42714;48.260;10.980;2023-07-31T02:31:49;970.8;;;15.1;100.0
51227;BME280;42714;48.260;10.980;2023-07-31T02:36:50;970.8;;;15.0;100.0
51227;BME280;42714;48.260;10.980;2023-07-31T02:41:51;970.8;;;15.0;100.0
51227;BME280;42714;48.260;10.980;2023-07-31T02:46:52;970.8;;;15.0;100.0
51227;BME280;42714;48.260;10.980;2023-07-31T02:51:53;970.8;;;15.1;100.0
51227;BME280;42714;48.260;10.980;2023-07-31T02:56:54;970.8;;;15.1;100.0
51227;BME280;42714;48.260;10.980;2023-07-31T03:01:55;970.7;;;15.2;100.0
51227;BME280;42714;48.260;10.980;2023-07-31T03:06:56;970.7;;;15.3;100.0
51227;BME280;42714;48.260;10.980;2023-07-31T03:11:57;970.7;;;15.2;100.0
51227;BME280;42714;48.260;10.980;2023-07-31T03:16:59;970.7;;;15.3;100.0
51227;BME280;42714;48.260;10.980;2023-07-31T03:21:59;970.8;;;15.4;100.0
51227;BME280;42714;48.260;10.980;2023-07-31T03:27:00;970.8;;;15.5;100.0
51227;BME280;42714;48.260;10.980;2023-07-31T03:32:01;970.8;;;15.6;100.0
51227;BME280;42714;48.260;10.980;2023-07-31T03:37:02;970.8;;;15.5;100.0
51227;BME280;42714;48.260;10.980;2023-07-31T03:42:03;970.8;;;15.5;100.0
51227;BME280;42714;48.260;10.980;2023-07-31T03:47:04;970.7;;;15.4;100.0
51227;BME280;42714;48.260;10.980;2023-07-31T03:52:06;970.7;;;15.3;100.0
51227;BME280;42714;48.260;10.980;2023-07-31T03:57:06;970.7;;;15.1;100.0
51227;BME280;42714;48.260;10.980;2023-07-31T04:02:07;970.8;;;15.0;100.0
51227;BME280;42714;48.260;10.980;2023-07-31T04:07:08;970.8;;;14.9;100.0
51227;BME280;42714;48.260;10.980;2023-07-31T04:12:09;970.8;;;14.8;100.0
51227;BME280;42714;48.260;10.980;2023-07-31T04:17:10;970.8;;;14.8;100.0
51227;BME280;42714;48.260;10.980;2023-07-31T04:22:11;970.7;;;14.7;100.0
51227;BME280;42714;48.260;10.980;2023-07-31T04:27:12;970.7;;;14.8;100.0
51227;BME280;42714;48.260;10.980;2023-07-31T04:32:13;970.7;;;14.8;100.0
51227;BME280;42714;48.260;10.980;2023-07-31T04:37:14;970.6;;;14.8;100.0
51227;BME280;42714;48.260;10.980;2023-07-31T04:42:15;970.5;;;14.9;100.0
51227;BME280;42714;48.260;10.980;2023-07-31T04:47:16;970.5;;;15.0;100.0
51227;BME280;42714;48.260;10.980;2023-07-31T04:52:17;970.5;;;15.3;100.0
51227;BME280;42714;48.260;10.980;2023-07-31T04:57:18;970.5;;;15.7;100.0
51227;BME280;42714;48.260;10.980;2023-07-31T05:02:19;970.5;;;16.5;100.0
51227;BME280;42714;48.260;10.980;2023-07-31T05:07:20;970.5;;;17.1;100.0
51227;BME280;42714;48.260;10.980;2023-07-31T05:12:21;970.5;;;17.3;100.0
51227;BME280;42714;48.260;10.980;2023-07-31T05:17:22;970.5;;;17.3;100.0
51227;BME280;42714;48.260;10.980;2023-07-31T05:22:23;970.6;;;17.4;100.0
51227;BME280;42714;48.260;10.980;2023-07-31T05:27:25;970.6;;;17.7;100.0
51227;BME280;42714;48.260;10.980;2023-07-31T05:32:25;970.7;;;17.9;100.0
51227;BME280;42714;48.260;10.980;2023-07-31T05:37:26;970.6;;;18.1;100.0
51227;BME280;42714;48.260;10.980;2023-07-31T05:42:27;970.6;;;18.3;100.0
51227;BME280;42714;48.260;10.980;2023-07-31T05:47:28;970.6;;;18.5;100.0
51227;BME280;42714;48.260;10.980;2023-07-31T05:52:29;970.5;;;18.6;100.0
51227;BME280;42714;48.260;10.980;2023-07-31T05:57:31;970.6;;;18.8;100.0
51227;BME280;42714;48.260;10.980;2023-07-31T06:02:32;970.6;;;19.3;100.0
51227;BME280;42714;48.260;10.980;2023-07-31T06:07:33;970.5;;;19.4;100.0
51227;BME280;42714;48.260;10.980;2023-07-31T06:12:34;970.5;;;19.4;100.0
51227;BME280;42714;48.260;10.980;2023-07-31T06:17:35;970.4;;;19.4;100.0
51227;BME280;42714;48.260;10.980;2023-07-31T06:22:36;970.4;;;19.4;100.0
51227;BME280;42714;48.260;10.980;2023-07-31T06:27:37;970.4;;;19.3;100.0
51227;BME280;42714;48.260;10.980;2023-07-31T06:32:38;970.3;;;19.3;100.0
51227;BME280;42714;48.260;10.980;2023-07-31T06:37:39;970.3;;;19.5;100.0
51227;BME280;42714;48.260;10.980;2023-07-31T06:42:40;970.3;;;20.0;100.0
51227;BME280;42714;48.260;10.980;2023-07-31T06:47:41;970.3;;;20.3;100.0
51227;BME280;42714;48.260;10.980;2023-07-31T06:52:42;970.3;;;21.5;100.0
51227;BME280;42714;48.260;10.980;2023-07-31T06:57:43;970.3;;;22.2;100.0
51227;BME280;42714;48.260;10.980;2023-07-31T07:02:44;970.4;;;21.6;100.0
51227;BME280;42714;48.260;10.980;2023-07-31T07:07:45;970.4;;;21.3;100.0
51227;BME280;42714;48.260;10.980;2023-07-31T07:12:46;970.4;;;21.5;100.0
51227;BME280;42714;48.260;10.980;2023-07-31T07:17:47;970.3;;;21.9;100.0
51227;BME280;42714;48.260;10.980;2023-07-31T07:22:48;970.2;;;22.2;100.0
51227;BME280;42714;48.260;10.980;2023-07-31T07:27:49;970.1;;;22.4;100.0
51227;BME280;42714;48.260;10.980;2023-07-31T07:32:50;970.1;;;23.8;89.2
51227;BME280;42714;48.260;10.980;2023-07-31T07:37:51;970.0;;;25.4;65.4
51227;BME280;42714;48.260;10.980;2023-07-31T07:42:52;970.0;;;27.1;56.5
51227;BME280;42714;48.260;10.980;2023-07-31T07:47:53;970.0;;;26.4;52.5
51227;BME280;42714;48.260;10.980;2023-07-31T07:52:54;970.0;;;24.9;61.3
51227;BME280;42714;48.260;10.980;2023-07-31T07:57:55;970.0;;;23.9;70.4
51227;BME280;42714;48.260;10.980;2023-07-31T08:02:56;970.1;;;23.4;69.8
51227;BME280;42714;48.260;10.980;2023-07-31T08:07:57;970.1;;;22.7;72.2
51227;BME280;42714;48.260;10.980;2023-07-31T08:12:58;970.1;;;22.2;79.5
51227;BME280;42714;48.260;10.980;2023-07-31T08:17:59;970.2;;;21.9;87.8
51227;BME280;42714;48.260;10.980;2023-07-31T08:23:00;970.2;;;21.6;89.9
51227;BME280;42714;48.260;10.980;2023-07-31T08:28:01;970.3;;;21.8;94.7
51227;BME280;42714;48.260;10.980;2023-07-31T08:33:02;970.3;;;22.2;84.8
51227;BME280;42714;48.260;10.980;2023-07-31T08:38:03;970.2;;;22.3;77.7
51227;BME280;42714;48.260;10.980;2023-07-31T08:43:04;970.2;;;22.4;79.1
51227;BME280;42714;48.260;10.980;2023-07-31T08:48:05;970.2;;;22.9;77.4
51227;BME280;42714;48.260;10.980;2023-07-31T08:53:06;970.1;;;23.2;65.0
51227;BME280;42714;48.260;10.980;2023-07-31T08:58:07;970.0;;;23.5;68.9
51227;BME280;42714;48.260;10.980;2023-07-31T09:03:08;969.9;;;23.9;60.8
51227;BME280;42714;48.260;10.980;2023-07-31T09:08:09;969.9;;;24.1;64.8
51227;BME280;42714;48.260;10.980;2023-07-31T09:13:10;969.8;;;24.4;55.4
51227;BME280;42714;48.260;10.980;2023-07-31T09:18:11;969.8;;;24.2;59.8
51227;BME280;42714;48.260;10.980;2023-07-31T09:23:13;969.7;;;24.9;58.2
51227;BME280;42714;48.260;10.980;2023-07-31T09:28:13;969.7;;;26.2;50.9
51227;BME280;42714;48.260;10.980;2023-07-31T09:33:14;969.6;;;26.0;48.0
51227;BME280;42714;48.260;10.980;2023-07-31T09:38:15;969.7;;;26.0;50.0
51227;BME280;42714;48.260;10.980;2023-07-31T09:43:17;969.6;;;26.1;51.7
51227;BME280;42714;48.260;10.980;2023-07-31T09:48:17;969.5;;;27.6;43.9
51227;BME280;42714;48.260;10.980;2023-07-31T09:53:18;969.4;;;27.8;44.3
51227;BME280;42714;48.260;10.980;2023-07-31T09:58:19;969.2;;;27.9;42.5
51227;BME280;42714;48.260;10.980;2023-07-31T10:03:20;969.1;;;28.8;39.8
51227;BME280;42714;48.260;10.980;2023-07-31T10:08:21;969.1;;;28.4;41.1
51227;BME280;42714;48.260;10.980;2023-07-31T10:13:22;969.0;;;28.4;40.8
51227;BME280;42714;48.260;10.980;2023-07-31T10:18:23;968.9;;;27.7;42.0
51227;BME280;42714;48.260;10.980;2023-07-31T10:23:24;969.0;;;27.1;42.8
51227;BME280;42714;48.260;10.980;2023-07-31T10:28:25;968.9;;;28.2;42.5
51227;BME280;42714;48.260;10.980;2023-07-31T10:33:26;968.9;;;28.4;41.7
51227;BME280;42714;48.260;10.980;2023-07-31T10:38:27;968.9;;;28.3;41.1
51227;BME280;42714;48.260;10.980;2023-07-31T10:43:28;968.8;;;28.7;39.0
51227;BME280;42714;48.260;10.980;2023-07-31T10:48:32;968.7;;;28.9;37.9
51227;BME280;42714;48.260;10.980;2023-07-31T10:53:31;968.7;;;29.3;39.9
51227;BME280;42714;48.260;10.980;2023-07-31T10:58:31;968.6;;;31.2;36.2
51227;BME280;42714;48.260;10.980;2023-07-31T11:03:55;968.5;;;32.3;31.9
51227;BME280;42714;48.260;10.980;2023-07-31T11:08:33;968.5;;;32.3;31.9
51227;BME280;42714;48.260;10.980;2023-07-31T11:13:55;968.4;;;32.6;32.5
51227;BME280;42714;48.260;10.980;2023-07-31T11:18:35;968.3;;;33.5;31.1
51227;BME280;42714;48.260;10.980;2023-07-31T11:23:36;968.2;;;33.3;30.6
51227;BME280;42714;48.260;10.980;2023-07-31T11:28:37;968.2;;;33.1;30.2
51227;BME280;42714;48.260;10.980;2023-07-31T11:33:38;968.0;;;32.6;31.9
51227;BME280;42714;48.260;10.980;2023-07-31T11:38:39;967.9;;;33.9;30.8
51227;BME280;42714;48.260;10.980;2023-07-31T11:43:40;967.9;;;32.7;30.9
51227;BME280;42714;48.260;10.980;2023-07-31T11:48:41;968.0;;;30.8;34.8
51227;BME280;42714;48.260;10.980;2023-07-31T11:53:43;967.9;;;30.1;36.2
51227;BME280;42714;48.260;10.980;2023-07-31T11:58:43;967.9;;;30.0;36.4
51227;BME280;42714;48.260;10.980;2023-07-31T12:03:44;967.8;;;30.1;38.0
51227;BME280;42714;48.260;10.980;2023-07-31T12:08:45;967.8;;;30.4;36.8
51227;BME280;42714;48.260;10.980;2023-07-31T12:13:46;967.7;;;30.5;35.2
51227;BME280;42714;48.260;10.980;2023-07-31T12:18:49;967.7;;;30.5;35.3
51227;BME280;42714;48.260;10.980;2023-07-31T12:23:48;967.6;;;32.0;33.0
51227;BME280;42714;48.260;10.980;2023-07-31T12:28:50;967.5;;;33.0;32.0
51227;BME280;42714;48.260;10.980;2023-07-31T12:33:50;967.5;;;33.3;30.4
51227;BME280;42714;48.260;10.980;2023-07-31T12:38:51;967.5;;;32.9;31.9
51227;BME280;42714;48.260;10.980;2023-07-31T12:43:52;967.4;;;34.1;30.7
51227;BME280;42714;48.260;10.980;2023-07-31T12:48:53;967.4;;;34.2;29.5
51227;BME280;42714;48.260;10.980;2023-07-31T12:53:54;967.3;;;34.0;29.7
51227;BME280;42714;48.260;10.980;2023-07-31T12:58:55;967.3;;;34.8;30.0
51227;BME280;42714;48.260;10.980;2023-07-31T13:03:56;967.2;;;33.9;30.0
51227;BME280;42714;48.260;10.980;2023-07-31T13:08:57;967.2;;;31.6;32.6
51227;BME280;42714;48.260;10.980;2023-07-31T13:13:58;967.2;;;29.8;35.9
51227;BME280;42714;48.260;10.980;2023-07-31T13:18:59;967.0;;;29.3;37.5
51227;BME280;42714;48.260;10.980;2023-07-31T13:24:00;966.9;;;29.2;37.2
51227;BME280;42714;48.260;10.980;2023-07-31T13:29:01;966.8;;;29.6;38.2
51227;BME280;42714;48.260;10.980;2023-07-31T13:34:02;966.7;;;31.0;38.7
51227;BME280;42714;48.260;10.980;2023-07-31T13:39:03;966.7;;;32.8;32.4
51227;BME280;42714;48.260;10.980;2023-07-31T13:44:04;966.6;;;33.3;31.1
51227;BME280;42714;48.260;10.980;2023-07-31T13:49:05;966.6;;;32.7;31.6
51227;BME280;42714;48.260;10.980;2023-07-31T13:54:06;966.6;;;31.5;32.7
51227;BME280;42714;48.260;10.980;2023-07-31T13:59:07;966.6;;;32.3;33.0
51227;BME280;42714;48.260;10.980;2023-07-31T14:04:08;966.6;;;33.7;31.4
51227;BME280;42714;48.260;10.980;2023-07-31T14:09:09;966.5;;;33.8;30.5
51227;BME280;42714;48.260;10.980;2023-07-31T14:14:10;966.4;;;32.8;30.5
51227;BME280;42714;48.260;10.980;2023-07-31T14:19:11;966.4;;;31.2;33.2
51227;BME280;42714;48.260;10.980;2023-07-31T14:24:12;966.5;;;29.6;35.8
51227;BME280;42714;48.260;10.980;2023-07-31T14:29:13;966.5;;;28.1;38.8
51227;BME280;42714;48.260;10.980;2023-07-31T14:34:14;966.6;;;27.0;43.1
51227;BME280;42714;48.260;10.980;2023-07-31T14:39:15;966.6;;;25.4;65.4
51227;BME280;42714;48.260;10.980;2023-07-31T14:44:16;966.7;;;24.6;64.1
51227;BME280;42714;48.260;10.980;2023-07-31T14:49:17;966.7;;;24.7;66.1
51227;BME280;42714;48.260;10.980;2023-07-31T14:54:18;966.6;;;24.7;70.6
51227;BME280;42714;48.260;10.980;2023-07-31T14:59:19;966.7;;;24.5;75.5
51227;BME280;42714;48.260;10.980;2023-07-31T15:04:20;966.7;;;23.7;100.0
51227;BME280;42714;48.260;10.980;2023-07-31T15:09:21;966.6;;;23.2;100.0
51227;BME280;42714;48.260;10.980;2023-07-31T15:14:23;966.6;;;22.9;100.0
51227;BME280;42714;48.260;10.980;2023-07-31T15:19:23;966.6;;;22.9;100.0
51227;BME280;42714;48.260;10.980;2023-07-31T15:24:24;966.5;;;22.7;100.0
51227;BME280;42714;48.260;10.980;2023-07-31T15:29:25;966.6;;;22.5;100.0
51227;BME280;42714;48.260;10.980;2023-07-31T15:34:26;966.5;;;22.5;100.0
51227;BME280;42714;48.260;10.980;2023-07-31T15:39:27;966.3;;;22.7;100.0
51227;BME280;42714;48.260;10.980;2023-07-31T15:44:28;966.3;;;23.0;100.0
51227;BME280;42714;48.260;10.980;2023-07-31T15:49:29;966.3;;;23.3;100.0
51227;BME280;42714;48.260;10.980;2023-07-31T15:54:30;966.2;;;23.5;100.0
51227;BME280;42714;48.260;10.980;2023-07-31T15:59:31;966.1;;;23.8;100.0
51227;BME280;42714;48.260;10.980;2023-07-31T16:04:32;966.0;;;23.8;100.0
51227;BME280;42714;48.260;10.980;2023-07-31T16:09:33;966.0;;;23.9;100.0
51227;BME280;42714;48.260;10.980;2023-07-31T16:14:34;966.1;;;24.1;99.6
51227;BME280;42714;48.260;10.980;2023-07-31T16:19:35;966.1;;;24.2;97.6
51227;BME280;42714;48.260;10.980;2023-07-31T16:24:36;966.1;;;24.3;94.4
51227;BME280;42714;48.260;10.980;2023-07-31T16:29:37;966.0;;;24.2;94.0
51227;BME280;42714;48.260;10.980;2023-07-31T16:34:38;965.9;;;24.1;88.9
51227;BME280;42714;48.260;10.980;2023-07-31T16:39:39;965.9;;;24.1;91.2
51227;BME280;42714;48.260;10.980;2023-07-31T16:44:40;965.8;;;24.0;87.7
51227;BME280;42714;48.260;10.980;2023-07-31T16:49:41;965.8;;;23.9;86.9
51227;BME280;42714;48.260;10.980;2023-07-31T16:54:42;965.8;;;23.9;81.3
51227;BME280;42714;48.260;10.980;2023-07-31T16:59:43;965.7;;;23.9;83.9
51227;BME280;42714;48.260;10.980;2023-07-31T17:04:45;965.7;;;23.8;86.1
51227;BME280;42714;48.260;10.980;2023-07-31T17:09:45;965.7;;;23.8;90.6
51227;BME280;42714;48.260;10.980;2023-07-31T17:14:46;965.6;;;23.9;88.7
51227;BME280;42714;48.260;10.980;2023-07-31T17:19:47;965.5;;;23.9;87.2
51227;BME280;42714;48.260;10.980;2023-07-31T17:24:48;965.5;;;23.7;88.1
51227;BME280;42714;48.260;10.980;2023-07-31T17:29:49;965.5;;;23.7;91.4
51227;BME280;42714;48.260;10.980;2023-07-31T17:34:50;965.4;;;23.8;90.5
51227;BME280;42714;48.260;10.980;2023-07-31T17:39:51;965.4;;;23.7;92.5
51227;BME280;42714;48.260;10.980;2023-07-31T17:44:52;965.4;;;23.6;94.3
51227;BME280;42714;48.260;10.980;2023-07-31T17:49:53;965.4;;;23.7;99.0
51227;BME280;42714;48.260;10.980;2023-07-31T17:54:54;965.2;;;23.6;94.2
51227;BME280;42714;48.260;10.980;2023-07-31T17:59:57;965.2;;;23.5;91.6
51227;BME280;42714;48.260;10.980;2023-07-31T18:04:58;965.1;;;23.3;91.0
51227;BME280;42714;48.260;10.980;2023-07-31T18:09:59;965.1;;;23.0;93.1
51227;BME280;42714;48.260;10.980;2023-07-31T18:15:00;965.1;;;22.8;96.5
51227;BME280;42714;48.260;10.980;2023-07-31T18:20:01;965.1;;;22.7;97.8
51227;BME280;42714;48.260;10.980;2023-07-31T18:25:02;965.0;;;22.5;100.0
51227;BME280;42714;48.260;10.980;2023-07-31T18:45:06;965.0;;;21.6;100.0
51227;BME280;42714;48.260;10.980;2023-07-31T18:50:07;965.0;;;21.4;100.0
51227;BME280;42714;48.260;10.980;2023-07-31T18:55:08;964.9;;;21.1;100.0
51227;BME280;42714;48.260;10.980;2023-07-31T19:00:10;964.8;;;20.9;100.0
51227;BME280;42714;48.260;10.980;2023-07-31T19:05:10;964.9;;;20.7;100.0
51227;BME280;42714;48.260;10.980;2023-07-31T19:10:11;964.9;;;20.6;100.0
51227;BME280;42714;48.260;10.980;2023-07-31T19:15:12;964.9;;;20.4;100.0
51227;BME280;42714;48.260;10.980;2023-07-31T19:20:13;965.1;;;20.3;100.0
51227;BME280;42714;48.260;10.980;2023-07-31T19:25:14;965.1;;;20.3;100.0
51227;BME280;42714;48.260;10.980;2023-07-31T19:30:15;965.2;;;20.2;100.0
51227;BME280;42714;48.260;10.980;2023-07-31T19:35:16;965.2;;;20.3;100.0
51227;BME280;42714;48.260;10.980;2023-07-31T19:40:18;965.1;;;20.3;100.0
51227;BME280;42714;48.260;10.980;2023-07-31T19:45:18;965.2;;;20.3;100.0
51227;BME280;42714;48.260;10.980;2023-07-31T19:50:19;965.1;;;20.3;100.0
51227;BME280;42714;48.260;10.980;2023-07-31T19:55:20;965.0;;;20.3;100.0
51227;BME280;42714;48.260;10.980;2023-07-31T20:00:21;964.9;;;20.2;100.0
51227;BME280;42714;48.260;10.980;2023-07-31T20:05:22;964.9;;;20.1;100.0
51227;BME280;42714;48.260;10.980;2023-07-31T20:10:23;964.9;;;20.1;100.0
51227;BME280;42714;48.260;10.980;2023-07-31T20:15:24;964.9;;;20.0;100.0
51227;BME280;42714;48.260;10.980;2023-07-31T20:20:25;964.8;;;20.0;100.0
51227;BME280;42714;48.260;10.980;2023-07-31T20:25:26;964.7;;;20.0;100.0
51227;BME280;42714;48.260;10.980;2023-07-31T20:30:27;964.7;;;20.0;100.0
51227;BME280;42714;48.260;10.980;2023-07-31T20:35:28;964.6;;;20.1;100.0
51227;BME280;42714;48.260;10.980;2023-07-31T20:40:29;964.6;;;20.2;100.0
51227;BME280;42714;48.260;10.980;2023-07-31T20:45:30;964.5;;;20.3;100.0
51227;BME280;42714;48.260;10.980;2023-07-31T20:50:31;964.4;;;20.3;100.0
51227;BME280;42714;48.260;10.980;2023-07-31T20:55:32;964.4;;;20.4;100.0
51227;BME280;42714;48.260;10.980;2023-07-31T21:00:33;964.3;;;20.4;100.0
51227;BME280;42714;48.260;10.980;2023-07-31T21:05:34;964.3;;;20.1;100.0
51227;BME280;42714;48.260;10.980;2023-07-31T21:10:37;964.3;;;19.7;100.0
51227;BME280;42714;48.260;10.980;2023-07-31T21:15:38;964.3;;;19.4;100.0
51227;BME280;42714;48.260;10.980;2023-07-31T21:20:37;964.2;;;19.2;100.0
51227;BME280;42714;48.260;10.980;2023-07-31T21:25:38;964.2;;;19.2;100.0
51227;BME280;42714;48.260;10.980;2023-07-31T21:30:39;964.0;;;19.3;100.0
51227;BME280;42714;48.260;10.980;2023-07-31T21:35:40;963.9;;;19.4;100.0
51227;BME280;42714;48.260;10.980;2023-07-31T21:40:41;963.9;;;19.5;100.0
51227;BME280;42714;48.260;10.980;2023-07-31T21:45:42;963.8;;;19.7;100.0
51227;BME280;42714;48.260;10.980;2023-07-31T21:50:43;963.8;;;19.8;100.0
51227;BME280;42714;48.260;10.980;2023-07-31T21:55:44;963.8;;;19.9;100.0
51227;BME280;42714;48.260;10.980;2023-07-31T22:00:45;963.7;;;19.5;100.0
51227;BME280;42714;48.260;10.980;2023-07-31T22:05:46;963.6;;;19.0;100.0
51227;BME280;42714;48.260;10.980;2023-07-31T22:10:48;963.7;;;18.6;100.0
51227;BME280;42714;48.260;10.980;2023-07-31T22:15:48;963.7;;;18.5;100.0
51227;BME280;42714;48.260;10.980;2023-07-31T22:20:50;963.5;;;18.5;100.0
51227;BME280;42714;48.260;10.980;2023-07-31T22:25:51;963.5;;;18.6;100.0
51227;BME280;42714;48.260;10.980;2023-07-31T22:30:52;963.5;;;18.9;100.0
51227;BME280;42714;48.260;10.980;2023-07-31T22:35:53;963.4;;;19.0;100.0
51227;BME280;42714;48.260;10.980;2023-07-31T22:40:54;963.3;;;19.2;100.0
51227;BME280;42714;48.260;10.980;2023-07-31T22:45:55;963.3;;;19.3;100.0
51227;BME280;42714;48.260;10.980;2023-07-31T22:50:56;963.3;;;19.4;100.0
51227;BME280;42714;48.260;10.980;2023-07-31T22:56:01;963.2;;;19.5;100.0
51227;BME280;42714;48.260;10.980;2023-07-31T23:05:59;963.0;;;19.7;100.0
51227;BME280;42714;48.260;10.980;2023-07-31T23:11:01;962.9;;;19.6;100.0
51227;BME280;42714;48.260;10.980;2023-07-31T23:16:01;962.9;;;19.6;100.0
51227;BME280;42714;48.260;10.980;2023-07-31T23:21:02;962.9;;;19.6;100.0
51227;BME280;42714;48.260;10.980;2023-07-31T23:26:03;962.8;;;19.6;100.0
51227;BME280;42714;48.260;10.980;2023-07-31T23:31:04;962.8;;;19.6;100.0
51227;BME280;42714;48.260;10.980;2023-07-31T23:36:06;962.7;;;19.6;100.0
51227;BME280;42714;48.260;10.980;2023-07-31T23:41:06;962.6;;;19.6;100.0
51227;BME280;42714;48.260;10.980;2023-07-31T23:46:07;962.5;;;19.6;100.0
51227;BME280;42714;48.260;10.980;2023-07-31T23:51:08;962.4;;;19.5;100.0
51227;BME280;42714;48.260;10.980;2023-07-31T23:56:09;962.3;;;19.4;100.0
